sensor_id;sensor_type;location;lat;lon;timestamp;pressure;altitude;pressure_sealevel;temperature;humidity
70468;BME280;57934;51.532;7.684;2022-11-03T00:01:09;100448.53;;;10.31;71.83
70468;BME280;57934;51.532;7.684;2022-11-03T00:03:35;100437.44;;;10.36;71.96
70468;BME280;57934;51.532;7.684;2022-11-03T00:06:02;100432.78;;;10.38;71.71
70468;BME280;57934;51.532;7.684;2022-11-03T00:08:32;100429.34;;;10.37;71.88
70468;BME280;57934;51.532;7.684;2022-11-03T00:11:11;100421.50;;;10.44;71.99
70468;BME280;57934;51.532;7.684;2022-11-03T00:13:39;100416.41;;;10.42;72.06
70468;BME280;57934;51.532;7.684;2022-11-03T00:16:06;100420.69;;;10.43;72.42
70468;BME280;57934;51.532;7.684;2022-11-03T00:18:33;100415.47;;;10.50;72.40
70468;BME280;57934;51.532;7.684;2022-11-03T00:23:32;100424.63;;;10.54;72.94
70468;BME280;57934;51.532;7.684;2022-11-03T00:26:11;100420.38;;;10.53;72.66
70468;BME280;57934;51.532;7.684;2022-11-03T00:28:39;100423.00;;;10.53;73.07
70468;BME280;57934;51.532;7.684;2022-11-03T00:31:29;100428.66;;;10.50;73.50
70468;BME280;57934;51.532;7.684;2022-11-03T00:33:56;100429.28;;;10.52;73.63
70468;BME280;57934;51.532;7.684;2022-11-03T00:36:25;100424.19;;;10.50;73.55
70468;BME280;57934;51.532;7.684;2022-11-03T00:38:51;100424.78;;;10.46;74.16
70468;BME280;57934;51.532;7.684;2022-11-03T00:41:18;100422.75;;;10.48;74.25
70468;BME280;57934;51.532;7.684;2022-11-03T00:43:48;100422.94;;;10.46;74.34
70468;BME280;57934;51.532;7.684;2022-11-03T00:46:15;100414.66;;;10.49;74.31
70468;BME280;57934;51.532;7.684;2022-11-03T00:48:42;100416.47;;;10.49;74.59
70468;BME280;57934;51.532;7.684;2022-11-03T00:51:13;100410.59;;;10.47;74.76
70468;BME280;57934;51.532;7.684;2022-11-03T00:53:47;100407.13;;;10.46;74.75
70468;BME280;57934;51.532;7.684;2022-11-03T00:56:21;100406.50;;;10.44;75.14
70468;BME280;57934;51.532;7.684;2022-11-03T00:58:48;100395.78;;;10.46;75.55
70468;BME280;57934;51.532;7.684;2022-11-03T01:01:19;100396.97;;;10.43;75.24
70468;BME280;57934;51.532;7.684;2022-11-03T01:03:48;100400.59;;;10.42;75.17
70468;BME280;57934;51.532;7.684;2022-11-03T01:06:36;100391.63;;;10.37;75.36
70468;BME280;57934;51.532;7.684;2022-11-03T01:09:23;100393.25;;;10.38;75.80
70468;BME280;57934;51.532;7.684;2022-11-03T01:12:03;100384.97;;;10.41;75.92
70468;BME280;57934;51.532;7.684;2022-11-03T01:14:32;100389.00;;;10.37;76.37
70468;BME280;57934;51.532;7.684;2022-11-03T01:16:58;100389.38;;;10.34;76.21
70468;BME280;57934;51.532;7.684;2022-11-03T01:19:24;100385.16;;;10.39;76.26
70468;BME280;57934;51.532;7.684;2022-11-03T01:21:51;100377.44;;;10.38;76.13
70468;BME280;57934;51.532;7.684;2022-11-03T01:24:18;100385.22;;;10.46;76.48
70468;BME280;57934;51.532;7.684;2022-11-03T01:26:44;100387.66;;;10.47;76.50
70468;BME280;57934;51.532;7.684;2022-11-03T01:29:10;100377.50;;;10.44;76.58
70468;BME280;57934;51.532;7.684;2022-11-03T01:31:35;100375.94;;;10.50;76.42
70468;BME280;57934;51.532;7.684;2022-11-03T01:34:01;100374.09;;;10.50;76.01
70468;BME280;57934;51.532;7.684;2022-11-03T01:36:27;100376.16;;;10.55;76.05
70468;BME280;57934;51.532;7.684;2022-11-03T01:38:55;100364.59;;;10.56;76.02
70468;BME280;57934;51.532;7.684;2022-11-03T01:41:26;100373.72;;;10.54;76.17
70468;BME280;57934;51.532;7.684;2022-11-03T01:46:56;100363.84;;;10.62;75.90
70468;BME280;57934;51.532;7.684;2022-11-03T01:52:10;100354.59;;;10.73;75.31
70468;BME280;57934;51.532;7.684;2022-11-03T01:54:41;100352.75;;;10.73;75.66
70468;BME280;57934;51.532;7.684;2022-11-03T01:57:16;100350.38;;;10.79;75.36
70468;BME280;57934;51.532;7.684;2022-11-03T01:59:45;100343.28;;;10.79;75.27
70468;BME280;57934;51.532;7.684;2022-11-03T02:02:16;100343.91;;;10.81;75.31
70468;BME280;57934;51.532;7.684;2022-11-03T02:04:42;100337.63;;;10.82;75.31
70468;BME280;57934;51.532;7.684;2022-11-03T02:07:20;100331.56;;;10.88;75.46
70468;BME280;57934;51.532;7.684;2022-11-03T02:09:49;100332.78;;;10.86;75.84
70468;BME280;57934;51.532;7.684;2022-11-03T02:12:15;100325.81;;;10.78;76.25
70468;BME280;57934;51.532;7.684;2022-11-03T02:14:50;100320.56;;;10.78;76.37
70468;BME280;57934;51.532;7.684;2022-11-03T02:17:18;100319.75;;;10.78;76.24
70468;BME280;57934;51.532;7.684;2022-11-03T02:19:58;100320.78;;;10.83;76.42
70468;BME280;57934;51.532;7.684;2022-11-03T02:26:07;100307.59;;;10.83;76.36
70468;BME280;57934;51.532;7.684;2022-11-03T02:28:30;100302.13;;;10.85;76.30
70468;BME280;57934;51.532;7.684;2022-11-03T02:31:15;100294.59;;;10.82;76.46
70468;BME280;57934;51.532;7.684;2022-11-03T02:33:54;100292.53;;;10.77;76.89
70468;BME280;57934;51.532;7.684;2022-11-03T02:36:36;100288.09;;;10.78;76.72
70468;BME280;57934;51.532;7.684;2022-11-03T02:39:22;100278.75;;;10.75;77.00
70468;BME280;57934;51.532;7.684;2022-11-03T02:41:51;100277.13;;;10.74;77.47
70468;BME280;57934;51.532;7.684;2022-11-03T02:44:19;100280.94;;;10.71;77.31
70468;BME280;57934;51.532;7.684;2022-11-03T02:46:48;100274.66;;;10.72;77.27
70468;BME280;57934;51.532;7.684;2022-11-03T02:49:16;100278.75;;;10.75;77.26
70468;BME280;57934;51.532;7.684;2022-11-03T02:51:42;100262.94;;;10.82;76.99
70468;BME280;57934;51.532;7.684;2022-11-03T02:54:22;100261.91;;;10.76;77.20
70468;BME280;57934;51.532;7.684;2022-11-03T02:57:01;100256.19;;;10.72;77.51
70468;BME280;57934;51.532;7.684;2022-11-03T02:59:45;100253.94;;;10.69;77.79
70468;BME280;57934;51.532;7.684;2022-11-03T03:02:21;100256.63;;;10.76;76.98
70468;BME280;57934;51.532;7.684;2022-11-03T03:05:01;100247.13;;;10.82;77.64
70468;BME280;57934;51.532;7.684;2022-11-03T03:07:31;100254.41;;;10.80;77.04
70468;BME280;57934;51.532;7.684;2022-11-03T03:10:20;100255.59;;;10.77;77.47
70468;BME280;57934;51.532;7.684;2022-11-03T03:12:50;100242.84;;;10.74;77.23
70468;BME280;57934;51.532;7.684;2022-11-03T03:15:19;100242.59;;;10.69;77.33
70468;BME280;57934;51.532;7.684;2022-11-03T03:21:14;100234.03;;;10.67;77.66
70468;BME280;57934;51.532;7.684;2022-11-03T03:23:46;100225.34;;;10.73;77.44
70468;BME280;57934;51.532;7.684;2022-11-03T03:26:25;100221.91;;;10.72;77.35
70468;BME280;57934;51.532;7.684;2022-11-03T03:29:03;100225.31;;;10.66;77.52
70468;BME280;57934;51.532;7.684;2022-11-03T03:31:35;100216.19;;;10.62;77.94
70468;BME280;57934;51.532;7.684;2022-11-03T03:34:03;100217.78;;;10.63;78.26
70468;BME280;57934;51.532;7.684;2022-11-03T03:36:31;100221.28;;;10.64;78.11
70468;BME280;57934;51.532;7.684;2022-11-03T03:39:01;100218.63;;;10.64;78.37
70468;BME280;57934;51.532;7.684;2022-11-03T03:41:28;100221.28;;;10.64;77.94
70468;BME280;57934;51.532;7.684;2022-11-03T03:44:03;100219.44;;;10.64;78.32
70468;BME280;57934;51.532;7.684;2022-11-03T03:46:35;100212.94;;;10.67;77.90
70468;BME280;57934;51.532;7.684;2022-11-03T03:49:01;100210.31;;;10.67;77.65
70468;BME280;57934;51.532;7.684;2022-11-03T03:51:28;100210.31;;;10.67;77.74
70468;BME280;57934;51.532;7.684;2022-11-03T03:53:55;100207.06;;;10.65;77.91
70468;BME280;57934;51.532;7.684;2022-11-03T03:56:32;100206.88;;;10.66;77.90
70468;BME280;57934;51.532;7.684;2022-11-03T03:59:00;100199.75;;;10.67;77.83
70468;BME280;57934;51.532;7.684;2022-11-03T04:01:26;100198.56;;;10.69;77.58
70468;BME280;57934;51.532;7.684;2022-11-03T04:03:52;100189.88;;;10.75;77.68
70468;BME280;57934;51.532;7.684;2022-11-03T04:06:18;100202.03;;;10.77;77.36
70468;BME280;57934;51.532;7.684;2022-11-03T04:08:44;100194.53;;;10.73;77.31
70468;BME280;57934;51.532;7.684;2022-11-03T04:11:10;100194.34;;;10.75;77.47
70468;BME280;57934;51.532;7.684;2022-11-03T04:13:55;100192.31;;;10.77;77.38
70468;BME280;57934;51.532;7.684;2022-11-03T04:16:39;100185.00;;;10.72;77.25
70468;BME280;57934;51.532;7.684;2022-11-03T04:19:23;100194.34;;;10.75;77.02
70468;BME280;57934;51.532;7.684;2022-11-03T04:22:08;100192.28;;;10.70;77.52
70468;BME280;57934;51.532;7.684;2022-11-03T04:24:50;100182.13;;;10.67;77.55
70468;BME280;57934;51.532;7.684;2022-11-03T04:27:35;100169.53;;;10.63;77.57
70468;BME280;57934;51.532;7.684;2022-11-03T04:30:22;100172.78;;;10.65;77.71
70468;BME280;57934;51.532;7.684;2022-11-03T04:32:50;100171.56;;;10.61;77.98
70468;BME280;57934;51.532;7.684;2022-11-03T04:35:21;100174.19;;;10.61;77.97
70468;BME280;57934;51.532;7.684;2022-11-03T04:37:53;100169.72;;;10.61;78.25
70468;BME280;57934;51.532;7.684;2022-11-03T04:40:22;100161.22;;;10.66;77.83
70468;BME280;57934;51.532;7.684;2022-11-03T04:42:48;100150.69;;;10.66;77.70
70468;BME280;57934;51.532;7.684;2022-11-03T04:45:30;100144.56;;;10.59;78.18
70468;BME280;57934;51.532;7.684;2022-11-03T04:48:00;100147.63;;;10.62;77.83
70468;BME280;57934;51.532;7.684;2022-11-03T04:50:30;100145.19;;;10.61;78.21
70468;BME280;57934;51.532;7.684;2022-11-03T04:52:57;100147.84;;;10.61;78.10
70468;BME280;57934;51.532;7.684;2022-11-03T04:55:23;100135.63;;;10.60;77.94
70468;BME280;57934;51.532;7.684;2022-11-03T04:57:57;100127.97;;;10.65;77.93
70468;BME280;57934;51.532;7.684;2022-11-03T05:00:24;100128.16;;;10.63;77.90
70468;BME280;57934;51.532;7.684;2022-11-03T05:02:51;100121.66;;;10.66;77.43
70468;BME280;57934;51.532;7.684;2022-11-03T05:05:22;100122.91;;;10.70;77.61
70468;BME280;57934;51.532;7.684;2022-11-03T05:07:56;100120.47;;;10.68;76.90
70468;BME280;57934;51.532;7.684;2022-11-03T05:10:25;100119.28;;;10.71;77.39
70468;BME280;57934;51.532;7.684;2022-11-03T05:12:55;100116.25;;;10.74;77.05
70468;BME280;57934;51.532;7.684;2022-11-03T05:15:36;100116.44;;;10.79;77.28
70468;BME280;57934;51.532;7.684;2022-11-03T05:18:16;100105.69;;;10.81;76.72
70468;BME280;57934;51.532;7.684;2022-11-03T05:20:55;100113.41;;;10.82;76.62
70468;BME280;57934;51.532;7.684;2022-11-03T05:23:22;100107.75;;;10.85;76.65
70468;BME280;57934;51.532;7.684;2022-11-03T05:25:51;100103.88;;;10.81;76.98
70468;BME280;57934;51.532;7.684;2022-11-03T05:28:29;100098.19;;;10.84;76.96
70468;BME280;57934;51.532;7.684;2022-11-03T05:30:56;100094.56;;;10.85;76.48
70468;BME280;57934;51.532;7.684;2022-11-03T05:33:30;100090.47;;;10.83;76.86
70468;BME280;57934;51.532;7.684;2022-11-03T05:36:01;100082.56;;;10.83;76.74
70468;BME280;57934;51.532;7.684;2022-11-03T05:38:29;100082.38;;;10.78;76.59
70468;BME280;57934;51.532;7.684;2022-11-03T05:40:57;100085.78;;;10.71;77.21
70468;BME280;57934;51.532;7.684;2022-11-03T05:43:23;100076.44;;;10.69;77.70
70468;BME280;57934;51.532;7.684;2022-11-03T05:45:54;100073.00;;;10.68;77.33
70468;BME280;57934;51.532;7.684;2022-11-03T05:48:32;100079.91;;;10.69;77.61
70468;BME280;57934;51.532;7.684;2022-11-03T05:51:02;100080.53;;;10.71;77.30
70468;BME280;57934;51.532;7.684;2022-11-03T05:53:36;100085.19;;;10.76;77.38
70468;BME280;57934;51.532;7.684;2022-11-03T05:56:05;100076.06;;;10.79;77.40
70468;BME280;57934;51.532;7.684;2022-11-03T05:58:36;100075.66;;;10.75;78.05
70468;BME280;57934;51.532;7.684;2022-11-03T06:01:09;100069.16;;;10.71;77.93
70468;BME280;57934;51.532;7.684;2022-11-03T06:03:37;100058.63;;;10.78;78.16
70468;BME280;57934;51.532;7.684;2022-11-03T06:06:34;100056.41;;;10.81;77.83
70468;BME280;57934;51.532;7.684;2022-11-03T06:09:04;100049.31;;;10.82;78.18
70468;BME280;57934;51.532;7.684;2022-11-03T06:11:35;100051.13;;;10.88;78.01
70468;BME280;57934;51.532;7.684;2022-11-03T06:14:17;100051.75;;;10.90;78.29
70468;BME280;57934;51.532;7.684;2022-11-03T06:19:21;100042.00;;;10.90;78.08
70468;BME280;57934;51.532;7.684;2022-11-03T06:21:49;100041.38;;;10.95;77.98
70468;BME280;57934;51.532;7.684;2022-11-03T06:24:16;100037.34;;;10.99;77.72
70468;BME280;57934;51.532;7.684;2022-11-03T06:26:45;100036.97;;;11.02;77.15
70468;BME280;57934;51.532;7.684;2022-11-03T06:29:17;100041.38;;;11.02;77.15
70468;BME280;57934;51.532;7.684;2022-11-03T06:31:46;100042.00;;;11.04;77.12
70468;BME280;57934;51.532;7.684;2022-11-03T06:37:10;100040.59;;;11.01;77.49
70468;BME280;57934;51.532;7.684;2022-11-03T06:39:40;100040.81;;;11.06;77.80
70468;BME280;57934;51.532;7.684;2022-11-03T06:42:11;100032.91;;;11.06;77.67
70468;BME280;57934;51.532;7.684;2022-11-03T06:44:41;100035.31;;;11.08;77.72
70468;BME280;57934;51.532;7.684;2022-11-03T06:49:49;100025.38;;;11.16;77.42
70468;BME280;57934;51.532;7.684;2022-11-03T06:57:39;100018.69;;;11.27;77.03
70468;BME280;57934;51.532;7.684;2022-11-03T07:00:20;100004.88;;;11.32;76.56
70468;BME280;57934;51.532;7.684;2022-11-03T07:05:23;99999.75;;;11.37;76.58
70468;BME280;57934;51.532;7.684;2022-11-03T07:07:58;100004.03;;;11.38;76.79
70468;BME280;57934;51.532;7.684;2022-11-03T07:10:27;100000.78;;;11.42;76.27
70468;BME280;57934;51.532;7.684;2022-11-03T07:12:54;99998.31;;;11.47;76.10
70468;BME280;57934;51.532;7.684;2022-11-03T07:15:31;99991.63;;;11.52;76.22
70468;BME280;57934;51.532;7.684;2022-11-03T07:21:50;99972.50;;;11.63;75.88
70468;BME280;57934;51.532;7.684;2022-11-03T07:27:30;99975.72;;;11.65;75.12
70468;BME280;57934;51.532;7.684;2022-11-03T07:32:43;99964.31;;;11.78;74.28
70468;BME280;57934;51.532;7.684;2022-11-03T07:35:32;99953.34;;;11.81;74.31
70468;BME280;57934;51.532;7.684;2022-11-03T07:38:07;99949.28;;;11.85;74.26
70468;BME280;57934;51.532;7.684;2022-11-03T07:40:34;99949.50;;;11.90;74.10
70468;BME280;57934;51.532;7.684;2022-11-03T07:43:10;99947.84;;;11.89;74.45
70468;BME280;57934;51.532;7.684;2022-11-03T07:45:43;99939.31;;;11.93;73.82
70468;BME280;57934;51.532;7.684;2022-11-03T07:48:33;99947.63;;;11.97;74.07
70468;BME280;57934;51.532;7.684;2022-11-03T07:51:30;99944.59;;;11.93;74.23
70468;BME280;57934;51.532;7.684;2022-11-03T07:54:18;99933.19;;;11.93;74.71
70468;BME280;57934;51.532;7.684;2022-11-03T07:56:47;99931.38;;;11.93;74.48
70468;BME280;57934;51.532;7.684;2022-11-03T07:59:25;99923.78;;;12.04;73.66
70468;BME280;57934;51.532;7.684;2022-11-03T08:01:54;99930.72;;;12.05;73.83
70468;BME280;57934;51.532;7.684;2022-11-03T08:04:33;99916.00;;;12.15;73.48
70468;BME280;57934;51.532;7.684;2022-11-03T08:07:00;99921.22;;;12.29;72.63
70468;BME280;57934;51.532;7.684;2022-11-03T08:09:26;99925.66;;;12.28;72.64
70468;BME280;57934;51.532;7.684;2022-11-03T08:11:52;99923.56;;;12.44;72.20
70468;BME280;57934;51.532;7.684;2022-11-03T08:14:19;99910.06;;;12.52;71.37
70468;BME280;57934;51.532;7.684;2022-11-03T08:16:45;99919.41;;;12.54;71.51
70468;BME280;57934;51.532;7.684;2022-11-03T08:19:11;99914.44;;;12.64;71.39
70468;BME280;57934;51.532;7.684;2022-11-03T08:21:38;99912.75;;;12.70;71.03
70468;BME280;57934;51.532;7.684;2022-11-03T08:24:05;99917.00;;;12.78;70.84
70468;BME280;57934;51.532;7.684;2022-11-03T08:26:31;99909.25;;;12.76;70.52
70468;BME280;57934;51.532;7.684;2022-11-03T08:28:57;99908.91;;;12.91;70.57
70468;BME280;57934;51.532;7.684;2022-11-03T08:31:23;99913.22;;;13.10;69.87
70468;BME280;57934;51.532;7.684;2022-11-03T08:33:49;99899.69;;;13.19;69.38
70468;BME280;57934;51.532;7.684;2022-11-03T08:36:15;99890.53;;;13.40;68.60
70468;BME280;57934;51.532;7.684;2022-11-03T08:38:42;99881.00;;;13.69;67.84
70468;BME280;57934;51.532;7.684;2022-11-03T08:41:08;99885.13;;;13.83;66.47
70468;BME280;57934;51.532;7.684;2022-11-03T08:43:34;99881.00;;;13.87;66.44
70468;BME280;57934;51.532;7.684;2022-11-03T08:46:00;99886.94;;;13.82;66.49
70468;BME280;57934;51.532;7.684;2022-11-03T08:48:26;99878.78;;;13.84;66.48
70468;BME280;57934;51.532;7.684;2022-11-03T08:50:53;99875.34;;;13.83;66.51
70468;BME280;57934;51.532;7.684;2022-11-03T08:53:23;99883.38;;;13.77;66.51
70468;BME280;57934;51.532;7.684;2022-11-03T08:55:49;99868.72;;;13.74;66.61
70468;BME280;57934;51.532;7.684;2022-11-03T08:58:15;99872.16;;;13.75;66.63
70468;BME280;57934;51.532;7.684;2022-11-03T09:00:41;99872.03;;;13.70;66.36
70468;BME280;57934;51.532;7.684;2022-11-03T09:03:07;99876.69;;;13.56;66.46
70468;BME280;57934;51.532;7.684;2022-11-03T09:05:34;99871.47;;;13.49;66.88
70468;BME280;57934;51.532;7.684;2022-11-03T09:08:00;99859.41;;;13.53;66.90
70468;BME280;57934;51.532;7.684;2022-11-03T09:10:26;99851.25;;;13.55;66.52
70468;BME280;57934;51.532;7.684;2022-11-03T09:12:53;99850.06;;;13.51;66.68
70468;BME280;57934;51.532;7.684;2022-11-03T09:15:19;99851.50;;;13.65;66.42
70468;BME280;57934;51.532;7.684;2022-11-03T09:17:46;99851.66;;;13.70;66.01
70468;BME280;57934;51.532;7.684;2022-11-03T09:20:12;99846.19;;;13.83;66.05
70468;BME280;57934;51.532;7.684;2022-11-03T09:22:38;99845.03;;;13.91;65.62
70468;BME280;57934;51.532;7.684;2022-11-03T09:25:05;99836.56;;;14.01;65.24
70468;BME280;57934;51.532;7.684;2022-11-03T09:27:31;99832.53;;;14.10;65.18
70468;BME280;57934;51.532;7.684;2022-11-03T09:29:57;99830.00;;;14.15;65.08
70468;BME280;57934;51.532;7.684;2022-11-03T09:32:23;99826.66;;;14.20;64.69
70468;BME280;57934;51.532;7.684;2022-11-03T09:34:50;99830.25;;;14.37;64.42
70468;BME280;57934;51.532;7.684;2022-11-03T09:37:16;99813.78;;;14.47;64.00
70468;BME280;57934;51.532;7.684;2022-11-03T09:39:42;99812.31;;;14.63;63.65
70468;BME280;57934;51.532;7.684;2022-11-03T09:42:11;99806.06;;;14.80;62.80
70468;BME280;57934;51.532;7.684;2022-11-03T09:44:38;99823.47;;;15.00;62.44
70468;BME280;57934;51.532;7.684;2022-11-03T09:47:05;99817.19;;;15.18;61.70
70468;BME280;57934;51.532;7.684;2022-11-03T09:49:32;99811.50;;;15.26;61.19
70468;BME280;57934;51.532;7.684;2022-11-03T09:52:01;99802.13;;;15.35;60.55
70468;BME280;57934;51.532;7.684;2022-11-03T09:54:28;99798.16;;;15.49;60.34
70468;BME280;57934;51.532;7.684;2022-11-03T09:57:04;99789.13;;;15.50;59.44
70468;BME280;57934;51.532;7.684;2022-11-03T09:59:36;99780.59;;;15.48;59.31
70468;BME280;57934;51.532;7.684;2022-11-03T10:02:09;99775.47;;;15.59;58.68
70468;BME280;57934;51.532;7.684;2022-11-03T10:04:38;99767.72;;;15.57;59.06
70468;BME280;57934;51.532;7.684;2022-11-03T10:07:07;99760.63;;;15.46;58.30
70468;BME280;57934;51.532;7.684;2022-11-03T10:09:34;99764.47;;;15.38;58.50
70468;BME280;57934;51.532;7.684;2022-11-03T10:12:00;99750.25;;;15.44;58.97
70468;BME280;57934;51.532;7.684;2022-11-03T10:14:26;99753.06;;;15.55;58.87
70468;BME280;57934;51.532;7.684;2022-11-03T10:16:57;99747.59;;;15.44;59.38
70468;BME280;57934;51.532;7.684;2022-11-03T10:19:32;99742.75;;;15.41;59.12
70468;BME280;57934;51.532;7.684;2022-11-03T10:22:00;99740.13;;;15.30;59.49
70468;BME280;57934;51.532;7.684;2022-11-03T10:24:26;99751.59;;;15.18;60.12
70468;BME280;57934;51.532;7.684;2022-11-03T10:26:53;99746.56;;;15.05;59.91
70468;BME280;57934;51.532;7.684;2022-11-03T10:29:26;99741.72;;;15.02;60.78
70468;BME280;57934;51.532;7.684;2022-11-03T10:31:55;99741.03;;;15.07;60.60
70468;BME280;57934;51.532;7.684;2022-11-03T10:34:35;99730.75;;;15.10;59.91
70468;BME280;57934;51.532;7.684;2022-11-03T10:39:37;99727.94;;;14.88;60.90
70468;BME280;57934;51.532;7.684;2022-11-03T10:42:03;99719.59;;;14.85;60.79
70468;BME280;57934;51.532;7.684;2022-11-03T10:44:29;99707.72;;;14.87;61.13
70468;BME280;57934;51.532;7.684;2022-11-03T10:49:31;99685.81;;;14.80;61.05
70468;BME280;57934;51.532;7.684;2022-11-03T10:52:27;99658.38;;;14.74;60.95
70468;BME280;57934;51.532;7.684;2022-11-03T10:54:56;99643.13;;;14.82;60.30
70468;BME280;57934;51.532;7.684;2022-11-03T10:57:24;99639.41;;;14.83;60.37
70468;BME280;57934;51.532;7.684;2022-11-03T10:59:51;99637.69;;;14.76;60.96
70468;BME280;57934;51.532;7.684;2022-11-03T11:02:25;99644.66;;;14.66;61.48
70468;BME280;57934;51.532;7.684;2022-11-03T11:05:11;99635.44;;;14.56;62.37
70468;BME280;57934;51.532;7.684;2022-11-03T11:07:40;99638.22;;;14.62;62.58
70468;BME280;57934;51.532;7.684;2022-11-03T11:10:14;99617.31;;;14.65;62.69
70468;BME280;57934;51.532;7.684;2022-11-03T11:15:40;99606.25;;;14.56;62.57
70468;BME280;57934;51.532;7.684;2022-11-03T11:18:07;99607.75;;;14.64;62.06
70468;BME280;57934;51.532;7.684;2022-11-03T11:20:40;99613.94;;;14.70;62.31
70468;BME280;57934;51.532;7.684;2022-11-03T11:28:36;99581.56;;;14.68;61.98
70468;BME280;57934;51.532;7.684;2022-11-03T11:36:48;99548.47;;;14.59;61.44
70468;BME280;57934;51.532;7.684;2022-11-03T11:55:19;99529.84;;;14.87;60.73
70468;BME280;57934;51.532;7.684;2022-11-03T11:57:50;99525.38;;;15.21;59.15
70468;BME280;57934;51.532;7.684;2022-11-03T12:00:23;99506.53;;;15.62;57.94
70468;BME280;57934;51.532;7.684;2022-11-03T12:02:51;99492.59;;;15.93;56.84
70468;BME280;57934;51.532;7.684;2022-11-03T12:05:20;99480.66;;;16.18;55.56
70468;BME280;57934;51.532;7.684;2022-11-03T12:07:47;99485.16;;;16.39;54.20
70468;BME280;57934;51.532;7.684;2022-11-03T12:10:18;99482.16;;;16.63;53.09
70468;BME280;57934;51.532;7.684;2022-11-03T12:12:44;99478.06;;;16.77;53.11
70468;BME280;57934;51.532;7.684;2022-11-03T12:21:02;99481.66;;;16.93;52.49
70468;BME280;57934;51.532;7.684;2022-11-03T12:23:34;99477.94;;;16.67;53.76
70468;BME280;57934;51.532;7.684;2022-11-03T12:26:10;99471.47;;;16.58;54.38
70468;BME280;57934;51.532;7.684;2022-11-03T12:28:39;99473.19;;;16.42;54.49
70468;BME280;57934;51.532;7.684;2022-11-03T12:31:05;99475.75;;;16.32;54.16
70468;BME280;57934;51.532;7.684;2022-11-03T12:33:31;99477.09;;;16.34;54.02
70468;BME280;57934;51.532;7.684;2022-11-03T12:35:57;99470.19;;;16.33;53.76
70468;BME280;57934;51.532;7.684;2022-11-03T12:38:23;99473.38;;;16.35;53.49
70468;BME280;57934;51.532;7.684;2022-11-03T12:40:49;99453.97;;;16.35;53.16
70468;BME280;57934;51.532;7.684;2022-11-03T12:43:16;99448.09;;;16.33;53.21
70468;BME280;57934;51.532;7.684;2022-11-03T12:45:42;99436.91;;;16.31;52.98
70468;BME280;57934;51.532;7.684;2022-11-03T12:48:08;99423.34;;;16.32;53.27
70468;BME280;57934;51.532;7.684;2022-11-03T12:50:34;99415.41;;;16.37;53.22
70468;BME280;57934;51.532;7.684;2022-11-03T12:53:03;99406.88;;;16.35;52.31
70468;BME280;57934;51.532;7.684;2022-11-03T12:55:29;99402.81;;;16.28;51.88
70468;BME280;57934;51.532;7.684;2022-11-03T12:57:55;99390.78;;;16.20;51.92
70468;BME280;57934;51.532;7.684;2022-11-03T13:00:21;99392.03;;;16.12;52.57
70468;BME280;57934;51.532;7.684;2022-11-03T13:02:47;99395.75;;;16.11;51.50
70468;BME280;57934;51.532;7.684;2022-11-03T13:05:13;99389.06;;;16.09;51.44
70468;BME280;57934;51.532;7.684;2022-11-03T13:07:41;99379.28;;;16.14;51.42
70468;BME280;57934;51.532;7.684;2022-11-03T13:10:08;99370.56;;;16.19;51.78
70468;BME280;57934;51.532;7.684;2022-11-03T13:12:34;99360.41;;;16.16;52.15
70468;BME280;57934;51.532;7.684;2022-11-03T13:15:05;99362.50;;;16.14;52.32
70468;BME280;57934;51.532;7.684;2022-11-03T13:17:31;99352.22;;;16.22;52.41
70468;BME280;57934;51.532;7.684;2022-11-03T13:19:59;99349.97;;;16.41;52.67
70468;BME280;57934;51.532;7.684;2022-11-03T13:22:25;99345.66;;;16.67;52.70
70468;BME280;57934;51.532;7.684;2022-11-03T13:24:50;99332.34;;;16.73;51.85
70468;BME280;57934;51.532;7.684;2022-11-03T13:27:17;99324.38;;;16.73;51.71
70468;BME280;57934;51.532;7.684;2022-11-03T13:29:43;99322.72;;;16.66;51.90
70468;BME280;57934;51.532;7.684;2022-11-03T13:32:09;99317.41;;;16.66;52.34
70468;BME280;57934;51.532;7.684;2022-11-03T13:34:35;99305.22;;;16.33;52.18
70468;BME280;57934;51.532;7.684;2022-11-03T13:37:01;99297.59;;;16.10;53.00
70468;BME280;57934;51.532;7.684;2022-11-03T13:39:29;99293.75;;;15.95;53.21
70468;BME280;57934;51.532;7.684;2022-11-03T13:41:55;99291.28;;;15.89;54.08
70468;BME280;57934;51.532;7.684;2022-11-03T13:44:21;99269.53;;;15.92;54.75
70468;BME280;57934;51.532;7.684;2022-11-03T13:46:47;99266.28;;;15.85;54.95
70468;BME280;57934;51.532;7.684;2022-11-03T13:49:14;99270.53;;;15.59;54.71
70468;BME280;57934;51.532;7.684;2022-11-03T13:51:40;99266.00;;;15.59;55.73
70468;BME280;57934;51.532;7.684;2022-11-03T13:54:06;99265.16;;;15.54;56.08
70468;BME280;57934;51.532;7.684;2022-11-03T13:56:32;99255.81;;;15.51;56.04
70468;BME280;57934;51.532;7.684;2022-11-03T13:58:58;99257.16;;;15.48;55.77
70468;BME280;57934;51.532;7.684;2022-11-03T14:01:24;99248.06;;;15.44;55.65
70468;BME280;57934;51.532;7.684;2022-11-03T14:03:50;99243.25;;;15.41;56.15
70468;BME280;57934;51.532;7.684;2022-11-03T14:06:17;99243.19;;;15.36;56.28
70468;BME280;57934;51.532;7.684;2022-11-03T14:08:43;99232.75;;;15.30;56.88
70468;BME280;57934;51.532;7.684;2022-11-03T14:11:09;99231.94;;;15.24;56.93
70468;BME280;57934;51.532;7.684;2022-11-03T14:13:54;99230.56;;;15.21;57.19
70468;BME280;57934;51.532;7.684;2022-11-03T14:16:20;99229.16;;;15.14;57.52
70468;BME280;57934;51.532;7.684;2022-11-03T14:18:46;99221.91;;;15.09;57.21
70468;BME280;57934;51.532;7.684;2022-11-03T14:21:13;99221.06;;;15.03;57.45
70468;BME280;57934;51.532;7.684;2022-11-03T14:23:39;99220.00;;;15.04;58.06
70468;BME280;57934;51.532;7.684;2022-11-03T14:26:05;99205.38;;;15.02;58.21
70468;BME280;57934;51.532;7.684;2022-11-03T14:28:34;99201.63;;;14.98;58.42
70468;BME280;57934;51.532;7.684;2022-11-03T14:31:00;99199.97;;;14.92;58.70
70468;BME280;57934;51.532;7.684;2022-11-03T14:33:28;99192.38;;;14.78;59.80